createdAt,value
2023-03-05T09:10:54.211Z,101347.69
2023-03-05T09:14:58.860Z,101344.16
2023-03-05T09:19:01.729Z,101334.31
2023-03-05T09:23:04.920Z,101333.47
2023-03-05T09:27:08.009Z,101326.00
2023-03-05T09:31:12.653Z,101333.78
2023-03-05T09:35:15.856Z,101320.84
2023-03-05T09:39:18.996Z,101316.22
2023-03-05T09:43:35.565Z,101310.13
2023-03-05T09:47:54.752Z,101303.97
2023-03-05T09:52:04.919Z,101308.97
2023-03-05T09:56:13.460Z,101302.03
2023-03-05T10:00:30.877Z,101294.25
2023-03-05T10:04:47.572Z,101293.31
2023-03-05T10:08:56.572Z,101307.63
2023-03-05T10:13:03.325Z,101299.19
2023-03-05T10:17:23.994Z,101298.69
2023-03-05T10:21:39.204Z,101286.97
2023-03-05T10:25:55.686Z,101288.13
2023-03-05T10:30:07.250Z,101271.56
2023-03-05T10:34:52.868Z,101266.78
2023-03-05T10:39:34.874Z,101258.34
2023-03-05T10:43:47.627Z,101253.78
2023-03-05T10:47:53.662Z,101248.25
2023-03-05T10:52:04.611Z,101237.47
2023-03-05T10:56:08.135Z,101231.06
2023-03-05T11:00:19.900Z,101244.34
2023-03-05T11:04:32.152Z,101237.53
2023-03-05T11:08:36.589Z,101227.78
2023-03-05T11:12:40.200Z,101211.78
2023-03-05T11:16:50.825Z,101222.59
2023-03-05T11:21:07.393Z,101214.66
2023-03-05T11:25:18.931Z,101204.06
2023-03-05T11:29:24.530Z,101203.03
2023-03-05T11:33:30.113Z,101192.66
2023-03-05T11:37:34.031Z,101176.81
2023-03-05T11:41:40.495Z,101185.78
2023-03-05T11:45:44.328Z,101181.41
2023-03-05T11:49:53.368Z,101174.72
2023-03-05T11:54:00.483Z,101166.00
2023-03-05T11:58:22.684Z,101166.84
2023-03-05T12:02:27.980Z,101149.78
2023-03-05T12:06:38.854Z,101145.19
2023-03-05T12:10:42.489Z,101144.78
2023-03-05T12:14:51.489Z,101133.31
2023-03-05T12:19:01.443Z,101119.59
2023-03-05T12:23:06.404Z,101113.13
2023-03-05T12:27:18.322Z,101103.53
2023-03-05T12:31:37.727Z,101103.50
2023-03-05T12:35:41.972Z,101099.78
2023-03-05T12:39:52.752Z,101101.88
2023-03-05T12:44:21.045Z,101082.78
2023-03-05T12:48:45.008Z,101082.16
2023-03-05T12:52:48.319Z,101080.50
2023-03-05T12:56:54.376Z,101065.94
2023-03-05T13:01:04.075Z,101066.75
2023-03-05T13:05:21.273Z,101052.41
2023-03-05T13:09:27.595Z,101049.69
2023-03-05T13:13:36.750Z,101041.31
2023-03-05T13:17:44.367Z,101040.28
2023-03-05T13:21:47.641Z,101024.44
2023-03-05T13:26:02.939Z,101017.94
2023-03-05T13:30:20.552Z,101021.03
2023-03-05T13:34:26.563Z,101016.25
2023-03-05T13:38:36.640Z,101001.06
2023-03-05T13:42:40.031Z,100997.06
2023-03-05T13:46:44.454Z,100991.84
2023-03-05T13:50:55.193Z,100982.50
2023-03-05T13:54:59.544Z,100980.41
2023-03-05T13:59:02.574Z,100983.38
2023-03-05T14:03:22.206Z,100976.16
2023-03-05T14:07:37.413Z,100968.25
2023-03-05T14:11:40.528Z,100964.13
2023-03-05T14:15:44.704Z,100962.09
2023-03-05T14:19:49.544Z,100954.59
2023-03-05T14:23:55.061Z,100947.13
2023-03-05T14:27:58.595Z,100956.31
2023-03-05T14:32:05.211Z,100940.91
2023-03-05T14:36:11.562Z,100940.34
2023-03-05T14:40:27.462Z,100939.81
2023-03-05T14:44:30.710Z,100934.06
2023-03-05T14:48:33.535Z,100930.72
2023-03-05T14:52:38.384Z,100927.19
2023-03-05T14:56:41.254Z,100920.34
2023-03-05T15:00:44.994Z,100911.16
2023-03-05T15:04:48.504Z,100905.34
2023-03-05T15:08:53.256Z,100896.44
2023-03-05T15:12:56.755Z,100897.25
2023-03-05T15:17:00.908Z,100892.72
2023-03-05T15:21:03.735Z,100887.31
2023-03-05T15:25:08.741Z,100879.16
2023-03-05T15:29:11.607Z,100882.88
2023-03-05T15:33:16.755Z,100872.44
2023-03-05T15:37:19.576Z,100880.53
2023-03-05T15:41:23.927Z,100868.47
2023-03-05T15:45:27.388Z,100863.75
2023-03-05T15:49:30.175Z,100860.03
2023-03-05T15:53:33.060Z,100855.25
2023-03-05T15:57:39.010Z,100856.94
2023-03-05T16:01:47.463Z,100846.00
2023-03-05T16:05:50.600Z,100838.72
2023-03-05T16:09:56.051Z,100837.03
2023-03-05T16:14:02.870Z,100822.09
2023-03-05T16:18:09.143Z,100822.94
2023-03-05T16:22:11.982Z,100816.09
2023-03-05T16:26:14.770Z,100822.72
2023-03-05T16:30:20.188Z,100815.50
2023-03-05T16:34:23.032Z,100812.41
2023-03-05T16:38:25.991Z,100817.19
2023-03-05T16:42:29.356Z,100807.44
2023-03-05T16:46:35.182Z,100814.09
2023-03-05T16:50:38.154Z,100808.06
2023-03-05T16:54:41.435Z,100794.56
2023-03-05T16:58:44.470Z,100804.09
2023-03-05T17:02:49.047Z,100788.56
2023-03-05T17:06:53.407Z,100790.63
2023-03-05T17:10:56.438Z,100789.78
2023-03-05T17:14:59.411Z,100788.13
2023-03-05T17:19:04.768Z,100782.75
2023-03-05T17:23:07.622Z,100785.25
2023-03-05T17:27:11.199Z,100780.69
2023-03-05T17:31:14.617Z,100780.06
2023-03-05T17:35:20.987Z,100779.47
2023-03-05T17:39:23.776Z,100773.63
2023-03-05T17:43:26.597Z,100773.63
2023-03-05T17:47:33.284Z,100766.38
2023-03-05T17:51:38.392Z,100767.22
2023-03-05T17:55:41.525Z,100769.50
2023-03-05T17:59:44.739Z,100766.81
2023-03-05T18:03:47.700Z,100756.84
2023-03-05T18:07:53.505Z,100763.06
2023-03-05T18:11:56.480Z,100759.31
2023-03-05T18:16:00.523Z,100755.59
2023-03-05T18:20:05.175Z,100745.84
2023-03-05T18:24:10.654Z,100749.56
2023-03-05T18:28:18.798Z,100744.19
2023-03-05T18:32:24.245Z,100736.53
2023-03-05T18:36:27.290Z,100731.75
2023-03-05T18:40:35.855Z,100718.03
2023-03-05T18:44:39.432Z,100728.22
2023-03-05T18:48:42.275Z,100727.41
2023-03-05T18:52:45.667Z,100715.53
2023-03-05T18:56:51.095Z,100710.34
2023-03-05T19:00:54.258Z,100713.28
2023-03-05T19:05:00.938Z,100708.88
2023-03-05T19:10:02.256Z,100710.56
2023-03-05T19:14:06.951Z,100710.16
2023-03-05T19:18:09.745Z,100709.53
2023-03-05T19:22:29.427Z,100706.00
2023-03-05T19:26:49.048Z,100696.25
2023-03-05T19:31:04.139Z,100696.06
2023-03-05T19:35:09.011Z,100692.94
2023-03-05T19:39:13.049Z,100686.94
2023-03-05T19:43:17.631Z,100677.78
2023-03-05T19:47:22.191Z,100682.16
2023-03-05T19:51:26.942Z,100678.00
2023-03-05T19:55:31.119Z,100677.59
2023-03-05T19:59:34.070Z,100680.72
2023-03-05T20:03:39.047Z,100676.75
2023-03-05T20:07:43.215Z,100666.41
2023-03-05T20:11:47.049Z,100670.53
2023-03-05T20:16:06.251Z,100663.69
2023-03-05T20:20:30.878Z,100658.91
2023-03-05T20:24:50.494Z,100656.22
2023-03-05T20:29:07.566Z,100647.75
2023-03-05T20:33:17.417Z,100644.63
2023-03-05T20:38:25.961Z,100643.19
2023-03-05T20:42:31.070Z,100641.91
2023-03-05T20:46:36.722Z,100639.44
2023-03-05T20:51:01.413Z,100629.69
2023-03-05T20:55:04.940Z,100630.53
2023-03-05T20:59:10.771Z,100617.25
2023-03-05T21:03:14.260Z,100617.88
2023-03-05T21:07:18.675Z,100608.53
2023-03-05T21:11:22.792Z,100614.34
2023-03-05T21:15:30.241Z,100601.72
2023-03-05T21:19:35.154Z,100600.06
2023-03-05T21:23:53.392Z,100604.41
2023-03-05T21:27:58.282Z,100591.34
2023-03-05T21:32:03.300Z,100574.16
2023-03-05T21:36:07.652Z,100578.06
2023-03-05T21:40:13.977Z,100576.03
2023-03-05T21:44:17.763Z,100564.41
2023-03-05T21:48:23.346Z,100566.69
2023-03-05T21:52:26.644Z,100559.22
2023-03-05T21:56:31.023Z,100550.28
2023-03-05T22:00:33.877Z,100547.59
2023-03-05T22:04:38.239Z,100541.00
2023-03-05T22:08:41.685Z,100537.88
2023-03-05T22:13:13.203Z,100533.09
2023-03-05T22:17:16.238Z,100525.88
2023-03-05T22:21:22.807Z,100522.97
2023-03-05T22:25:26.594Z,100518.81
2023-03-05T22:29:29.546Z,100516.94
2023-03-05T22:33:33.087Z,100509.28
2023-03-05T22:37:37.526Z,100497.06
2023-03-05T22:41:42.576Z,100487.34
2023-03-05T22:45:45.977Z,100481.53
2023-03-05T22:49:48.797Z,100483.41
2023-03-05T22:53:53.614Z,100477.41
2023-03-05T22:57:56.719Z,100470.75
2023-03-05T23:01:59.647Z,100470.13
2023-03-05T23:06:02.710Z,100463.28
2023-03-05T23:10:10.635Z,100455.63
2023-03-05T23:14:14.517Z,100450.47
2023-03-05T23:18:17.579Z,100450.47
2023-03-05T23:22:20.414Z,100452.13
2023-03-05T23:26:25.483Z,100447.78
2023-03-05T23:30:29.412Z,100443.84
2023-03-05T23:34:32.597Z,100444.06
2023-03-05T23:38:36.594Z,100445.91
2023-03-05T23:42:41.163Z,100437.41
2023-03-05T23:46:44.095Z,100426.84
2023-03-05T23:50:48.539Z,100432.22
2023-03-05T23:54:51.829Z,100422.06
2023-03-05T23:59:00.452Z,100426.44
